createdAt,value
2022-08-26T00:02:12.781Z,19.50
2022-08-26T00:04:40.527Z,26.40
2022-08-26T00:07:08.467Z,25.60
2022-08-26T00:09:38.942Z,21.70
2022-08-26T00:12:09.306Z,27.30
2022-08-26T00:14:39.725Z,21.20
2022-08-26T00:17:08.646Z,22.60
2022-08-26T00:19:36.310Z,33.40
2022-08-26T00:22:04.218Z,24.60
2022-08-26T00:24:32.614Z,32.10
2022-08-26T00:27:00.387Z,24.40
2022-08-26T00:29:28.453Z,28.20
2022-08-26T00:31:59.509Z,25.70
2022-08-26T00:34:27.155Z,31.50
2022-08-26T00:36:54.621Z,20.00
2022-08-26T00:39:22.145Z,23.50
2022-08-26T00:41:50.439Z,20.80
2022-08-26T00:44:19.439Z,21.40
2022-08-26T00:46:51.304Z,23.80
2022-08-26T00:49:40.893Z,22.60
2022-08-26T00:52:14.501Z,19.40
2022-08-26T00:54:51.026Z,21.50
2022-08-26T00:57:22.281Z,18.00
2022-08-26T00:59:56.580Z,17.70
2022-08-26T01:02:24.708Z,19.70
2022-08-26T01:04:56.483Z,25.20
2022-08-26T01:07:30.312Z,19.60
2022-08-26T01:10:00.689Z,20.30
2022-08-26T01:12:32.669Z,21.30
2022-08-26T01:15:02.070Z,23.30
2022-08-26T01:17:30.537Z,20.40
2022-08-26T01:20:12.990Z,17.70
2022-08-26T01:23:03.404Z,21.70
2022-08-26T01:25:34.422Z,25.00
2022-08-26T01:28:06.436Z,23.70
2022-08-26T01:30:35.392Z,18.80
2022-08-26T01:33:06.943Z,19.50
2022-08-26T01:35:34.616Z,20.50
2022-08-26T01:38:02.121Z,16.60
2022-08-26T01:40:33.909Z,19.10
2022-08-26T01:43:03.778Z,21.40
2022-08-26T01:45:34.474Z,20.70
2022-08-26T01:48:07.550Z,22.50
2022-08-26T01:50:36.960Z,15.20
2022-08-26T01:53:11.065Z,19.70
2022-08-26T01:55:42.915Z,18.40
2022-08-26T01:58:17.885Z,19.90
2022-08-26T02:00:46.974Z,18.80
2022-08-26T02:03:16.496Z,22.10
2022-08-26T02:05:58.125Z,26.30
2022-08-26T02:08:35.947Z,22.70
2022-08-26T02:11:04.084Z,16.80
2022-08-26T02:13:34.834Z,21.50
2022-08-26T02:16:03.840Z,19.40
2022-08-26T02:18:37.969Z,18.60
2022-08-26T02:21:07.537Z,19.10
2022-08-26T02:23:35.867Z,19.70
2022-08-26T02:26:09.215Z,23.50
2022-08-26T02:28:45.628Z,20.60
2022-08-26T02:31:13.135Z,16.50
2022-08-26T02:33:43.105Z,15.30
2022-08-26T02:36:13.381Z,15.40
2022-08-26T02:38:41.092Z,20.20
2022-08-26T02:41:11.369Z,17.20
2022-08-26T02:43:38.910Z,16.50
2022-08-26T02:46:06.365Z,18.50
2022-08-26T02:48:34.135Z,20.40
2022-08-26T02:51:04.099Z,19.50
2022-08-26T02:53:35.395Z,16.70
2022-08-26T02:56:07.352Z,21.90
2022-08-26T02:58:35.334Z,22.90
2022-08-26T03:01:04.854Z,21.40
2022-08-26T03:03:33.024Z,16.80
2022-08-26T03:06:01.094Z,19.80
2022-08-26T03:08:28.590Z,15.40
2022-08-26T03:10:56.067Z,19.80
2022-08-26T03:13:23.476Z,25.70
2022-08-26T03:15:50.965Z,22.80
2022-08-26T03:18:18.617Z,19.80
2022-08-26T03:20:48.279Z,15.40
2022-08-26T03:23:16.366Z,21.00
2022-08-26T03:25:53.733Z,26.80
2022-08-26T03:28:21.262Z,20.00
2022-08-26T03:30:49.162Z,25.00
2022-08-26T03:33:16.632Z,23.00
2022-08-26T03:35:47.657Z,20.20
2022-08-26T03:38:19.841Z,19.80
2022-08-26T03:40:47.872Z,20.10
2022-08-26T03:43:17.093Z,18.60
2022-08-26T03:45:44.638Z,15.20
2022-08-26T03:48:14.177Z,16.90
2022-08-26T03:50:42.396Z,17.70
2022-08-26T03:53:12.654Z,20.50
2022-08-26T03:55:41.420Z,21.70
2022-08-26T03:58:09.086Z,18.70
2022-08-26T04:00:36.800Z,19.70
2022-08-26T04:03:04.386Z,22.60
2022-08-26T04:05:32.105Z,17.20
2022-08-26T04:07:59.867Z,17.90
2022-08-26T04:10:28.977Z,16.50
2022-08-26T04:12:59.405Z,24.50
2022-08-26T04:15:27.854Z,33.40
2022-08-26T04:17:55.955Z,27.30
2022-08-26T04:20:26.710Z,23.10
2022-08-26T04:22:54.217Z,27.30
2022-08-26T04:25:22.398Z,20.20
2022-08-26T04:27:52.182Z,26.00
2022-08-26T04:30:20.291Z,24.70
2022-08-26T04:32:49.812Z,19.90
2022-08-26T04:35:17.714Z,30.40
2022-08-26T04:37:45.181Z,22.80
2022-08-26T04:40:12.862Z,19.80
2022-08-26T04:42:40.368Z,52.60
2022-08-26T04:45:10.259Z,91.80
2022-08-26T04:47:38.220Z,113.90
2022-08-26T04:50:08.314Z,117.60
2022-08-26T04:52:38.632Z,104.30
2022-08-26T04:55:08.588Z,56.80
2022-08-26T04:57:36.420Z,71.90
2022-08-26T05:00:06.840Z,74.40
2022-08-26T05:02:34.421Z,56.10
2022-08-26T05:05:02.548Z,36.30
2022-08-26T05:07:31.129Z,93.80
2022-08-26T05:10:00.181Z,57.60
2022-08-26T05:12:31.305Z,41.90
2022-08-26T05:14:59.852Z,29.60
2022-08-26T05:17:27.340Z,31.40
2022-08-26T05:19:55.387Z,34.00
2022-08-26T05:22:22.958Z,33.30
2022-08-26T05:24:50.409Z,28.60
2022-08-26T05:27:17.826Z,27.10
2022-08-26T05:29:45.800Z,23.70
2022-08-26T05:32:13.661Z,25.80
2022-08-26T05:34:43.024Z,27.20
2022-08-26T05:37:10.770Z,28.30
2022-08-26T05:39:41.226Z,23.70
2022-08-26T05:42:11.008Z,24.30
2022-08-26T05:44:53.546Z,24.60
2022-08-26T05:47:21.654Z,16.50
2022-08-26T05:49:51.619Z,17.40
2022-08-26T05:52:19.667Z,14.00
2022-08-26T05:54:47.310Z,20.40
2022-08-26T05:57:15.860Z,16.50
2022-08-26T05:59:43.783Z,17.60
2022-08-26T06:02:11.252Z,14.90
2022-08-26T06:04:41.393Z,18.60
2022-08-26T06:07:13.390Z,13.70
2022-08-26T06:09:41.427Z,20.90
2022-08-26T06:12:09.658Z,15.30
2022-08-26T06:14:37.082Z,13.80
2022-08-26T06:17:04.619Z,13.30
2022-08-26T06:19:33.123Z,14.40
2022-08-26T06:22:23.291Z,14.80
2022-08-26T06:25:07.875Z,13.80
2022-08-26T06:27:37.398Z,9.80
2022-08-26T06:30:05.462Z,10.70
2022-08-26T06:32:33.881Z,10.70
2022-08-26T06:35:01.630Z,15.60
2022-08-26T06:37:29.442Z,15.10
2022-08-26T06:39:57.081Z,13.70
2022-08-26T06:42:25.247Z,18.70
2022-08-26T06:44:54.121Z,15.40
2022-08-26T06:47:22.038Z,10.40
2022-08-26T06:49:50.369Z,12.50
2022-08-26T06:52:22.983Z,15.20
2022-08-26T06:54:52.155Z,14.00
2022-08-26T06:57:20.555Z,14.50
2022-08-26T06:59:51.242Z,11.40
2022-08-26T07:02:19.603Z,17.40
2022-08-26T07:04:48.410Z,17.60
2022-08-26T07:07:18.683Z,17.10
2022-08-26T07:09:49.542Z,11.90
2022-08-26T07:12:20.948Z,15.00
2022-08-26T07:14:48.513Z,14.30
2022-08-26T07:17:16.664Z,10.40
2022-08-26T07:19:44.193Z,12.20
2022-08-26T07:22:11.821Z,15.10
2022-08-26T07:24:42.422Z,19.30
2022-08-26T07:27:13.781Z,13.10
2022-08-26T07:29:43.300Z,19.90
2022-08-26T07:32:13.200Z,14.30
2022-08-26T07:34:42.872Z,13.40
2022-08-26T07:37:11.528Z,11.30
2022-08-26T07:39:40.436Z,12.50
2022-08-26T07:42:09.671Z,12.30
2022-08-26T07:44:38.050Z,18.30
2022-08-26T07:47:10.436Z,13.20
2022-08-26T07:49:57.951Z,18.60
2022-08-26T07:52:27.975Z,12.00
2022-08-26T07:54:58.467Z,14.00
2022-08-26T07:57:27.273Z,13.20
2022-08-26T07:59:55.912Z,13.40
2022-08-26T08:02:25.772Z,13.40
2022-08-26T08:04:54.451Z,15.60
2022-08-26T08:07:25.854Z,13.40
2022-08-26T08:10:13.454Z,19.00
2022-08-26T08:12:41.884Z,17.00
2022-08-26T08:15:13.182Z,11.40
2022-08-26T08:17:44.190Z,16.60
2022-08-26T08:20:13.843Z,12.40
2022-08-26T08:22:43.032Z,13.40
2022-08-26T08:25:12.233Z,13.80
2022-08-26T08:27:42.943Z,15.50
2022-08-26T08:30:13.786Z,14.50
2022-08-26T08:32:45.355Z,13.10
2022-08-26T08:35:16.158Z,13.30
2022-08-26T08:37:45.104Z,47.30
2022-08-26T08:40:18.799Z,15.30
2022-08-26T08:42:55.413Z,16.60
2022-08-26T08:45:36.277Z,19.80
2022-08-26T08:48:33.370Z,14.60
2022-08-26T08:51:32.910Z,14.30
2022-08-26T08:54:02.569Z,21.00
2022-08-26T08:56:40.750Z,14.00
2022-08-26T08:59:20.244Z,16.20
2022-08-26T09:02:04.898Z,18.30
2022-08-26T09:04:57.929Z,16.50
2022-08-26T09:07:52.302Z,14.10
2022-08-26T09:10:31.159Z,13.90
2022-08-26T09:13:01.285Z,13.80
2022-08-26T09:15:53.693Z,16.50
2022-08-26T09:18:46.057Z,15.40
2022-08-26T09:21:17.941Z,16.70
2022-08-26T09:23:49.708Z,16.20
2022-08-26T09:26:19.767Z,13.60
2022-08-26T09:28:55.122Z,17.80
2022-08-26T09:31:30.790Z,23.40
2022-08-26T09:34:21.187Z,21.50
2022-08-26T09:36:50.324Z,16.90
2022-08-26T09:39:23.684Z,18.90
2022-08-26T09:42:09.600Z,14.10
2022-08-26T09:45:00.128Z,15.30
2022-08-26T09:47:32.786Z,17.60
2022-08-26T09:50:40.189Z,15.00
2022-08-26T09:53:30.672Z,16.40
2022-08-26T09:56:13.925Z,18.00
2022-08-26T09:58:44.013Z,15.70
2022-08-26T10:01:36.340Z,14.80
2022-08-26T10:04:12.058Z,24.30
2022-08-26T10:07:01.718Z,18.00
2022-08-26T10:09:35.395Z,22.30
2022-08-26T10:12:11.825Z,18.00
2022-08-26T10:14:59.022Z,15.90
2022-08-26T10:17:36.685Z,18.30
2022-08-26T10:20:23.229Z,15.60
2022-08-26T10:22:54.199Z,15.50
2022-08-26T10:25:33.144Z,17.40
2022-08-26T10:28:08.534Z,13.20
2022-08-26T10:30:48.726Z,15.70
2022-08-26T10:33:17.915Z,18.80
2022-08-26T10:35:56.313Z,17.00
2022-08-26T10:38:30.397Z,13.00
2022-08-26T10:41:17.002Z,13.40
2022-08-26T10:43:55.367Z,17.30
2022-08-26T10:46:28.449Z,20.40
2022-08-26T10:49:03.340Z,13.10
2022-08-26T10:51:42.138Z,12.10
2022-08-26T10:54:20.338Z,10.90
2022-08-26T10:57:20.342Z,14.20
2022-08-26T11:00:30.044Z,20.30
2022-08-26T11:03:09.551Z,16.10
2022-08-26T11:06:18.360Z,10.90
2022-08-26T11:08:47.892Z,13.50
2022-08-26T11:11:48.023Z,12.40
2022-08-26T11:14:28.549Z,17.70
2022-08-26T11:16:59.598Z,15.80
2022-08-26T11:19:50.548Z,21.80
2022-08-26T11:22:25.707Z,14.10
2022-08-26T11:24:53.133Z,12.80
2022-08-26T11:27:24.747Z,12.50
2022-08-26T11:29:56.765Z,18.10
2022-08-26T11:32:44.562Z,13.20
2022-08-26T11:35:17.154Z,12.30
2022-08-26T11:37:55.443Z,13.10
2022-08-26T11:40:32.769Z,29.80
2022-08-26T11:43:06.396Z,12.50
2022-08-26T11:45:37.860Z,16.60
2022-08-26T11:48:18.734Z,17.20
2022-08-26T11:51:10.377Z,12.20
2022-08-26T11:53:42.509Z,12.90
2022-08-26T11:56:17.344Z,12.30
2022-08-26T11:58:47.370Z,11.00
2022-08-26T12:01:27.267Z,14.60
2022-08-26T12:04:00.174Z,14.10
2022-08-26T12:06:43.465Z,15.90
2022-08-26T12:09:34.428Z,10.90
2022-08-26T12:12:21.918Z,15.00
2022-08-26T12:14:49.920Z,13.30
2022-08-26T12:17:28.350Z,12.30
2022-08-26T12:19:55.823Z,14.00
2022-08-26T12:22:30.392Z,13.90
2022-08-26T12:25:09.779Z,12.30
2022-08-26T12:27:41.482Z,22.50
2022-08-26T12:30:19.906Z,12.70
2022-08-26T12:32:57.885Z,11.00
2022-08-26T12:35:28.780Z,14.00
2022-08-26T12:37:58.189Z,8.80
2022-08-26T12:40:28.969Z,13.60
2022-08-26T12:43:00.254Z,12.70
2022-08-26T12:45:55.316Z,11.40
2022-08-26T12:48:29.056Z,10.70
2022-08-26T12:50:57.749Z,11.50
2022-08-26T12:53:29.397Z,15.80
2022-08-26T12:56:00.351Z,18.30
2022-08-26T12:58:29.860Z,9.30
2022-08-26T13:01:13.509Z,12.50
2022-08-26T13:03:45.344Z,13.70
2022-08-26T13:06:27.867Z,13.70
2022-08-26T13:08:56.795Z,17.20
2022-08-26T13:11:26.442Z,31.30
2022-08-26T13:14:00.381Z,12.20
2022-08-26T13:16:30.333Z,10.30
2022-08-26T13:19:00.673Z,22.20
2022-08-26T13:21:37.498Z,12.30
2022-08-26T13:24:12.999Z,15.50
2022-08-26T13:26:42.735Z,26.60
2022-08-26T13:29:10.787Z,12.70
2022-08-26T13:31:41.302Z,12.00
2022-08-26T13:34:14.539Z,12.70
2022-08-26T13:36:44.320Z,10.60
2022-08-26T13:39:12.698Z,21.10
2022-08-26T13:41:40.378Z,14.30
2022-08-26T13:44:08.258Z,14.00
2022-08-26T13:46:36.272Z,12.60
2022-08-26T13:49:04.052Z,17.50
2022-08-26T13:51:32.471Z,18.50
2022-08-26T13:54:00.603Z,13.60
2022-08-26T13:56:29.891Z,28.90
2022-08-26T13:58:59.411Z,32.50
2022-08-26T14:01:29.120Z,17.60
2022-08-26T14:03:57.448Z,15.90
2022-08-26T14:06:25.124Z,12.10
2022-08-26T14:08:52.702Z,9.70
2022-08-26T14:11:21.411Z,11.30
2022-08-26T14:13:48.933Z,11.40
2022-08-26T14:16:26.089Z,12.10
2022-08-26T14:18:54.352Z,24.30
2022-08-26T14:21:21.872Z,20.20
2022-08-26T14:23:49.337Z,14.80
2022-08-26T14:26:28.865Z,19.30
2022-08-26T14:28:59.618Z,13.60
2022-08-26T14:31:29.418Z,15.40
2022-08-26T14:34:00.952Z,12.30
2022-08-26T14:36:29.076Z,13.30
2022-08-26T14:39:02.771Z,19.60
2022-08-26T14:41:32.030Z,12.70
2022-08-26T14:44:07.846Z,13.50
2022-08-26T14:46:45.965Z,19.70
2022-08-26T14:49:14.556Z,15.50
2022-08-26T14:51:42.565Z,15.00
2022-08-26T14:54:11.946Z,22.40
2022-08-26T14:57:00.312Z,18.10
2022-08-26T14:59:31.109Z,13.90
2022-08-26T15:02:00.565Z,11.80
2022-08-26T15:04:29.435Z,17.50
2022-08-26T15:06:58.936Z,18.00
2022-08-26T15:09:29.343Z,19.20
2022-08-26T15:11:56.842Z,19.90
2022-08-26T15:14:27.583Z,14.00
2022-08-26T15:16:57.613Z,13.50
2022-08-26T15:19:26.498Z,15.10
2022-08-26T15:21:54.461Z,14.20
2022-08-26T15:24:25.742Z,14.20
2022-08-26T15:26:53.632Z,12.40
2022-08-26T15:29:23.750Z,13.70
2022-08-26T15:31:51.496Z,14.30
2022-08-26T15:34:22.635Z,14.30
2022-08-26T15:36:50.133Z,13.70
2022-08-26T15:39:17.733Z,16.20
2022-08-26T15:41:45.454Z,13.60
2022-08-26T15:44:14.220Z,13.80
2022-08-26T15:46:42.913Z,13.40
2022-08-26T15:49:17.598Z,16.00
2022-08-26T15:51:50.454Z,13.30
2022-08-26T15:54:22.184Z,13.70
2022-08-26T15:56:52.093Z,13.60
2022-08-26T15:59:21.499Z,13.50
2022-08-26T16:01:49.161Z,14.40
2022-08-26T16:04:18.481Z,14.60
2022-08-26T16:06:50.038Z,12.60
2022-08-26T16:09:20.120Z,15.20
2022-08-26T16:11:50.021Z,15.10
2022-08-26T16:14:17.797Z,12.60
2022-08-26T16:16:45.358Z,11.10
2022-08-26T16:19:13.003Z,13.90
2022-08-26T16:21:41.394Z,10.90
2022-08-26T16:24:10.012Z,11.30
2022-08-26T16:26:39.335Z,11.70
2022-08-26T16:29:10.588Z,11.00
2022-08-26T16:31:39.019Z,10.80
2022-08-26T16:34:07.755Z,13.90
2022-08-26T16:36:37.260Z,13.90
2022-08-26T16:39:06.993Z,10.80
2022-08-26T16:41:35.061Z,12.00
2022-08-26T16:44:06.586Z,10.20
2022-08-26T16:46:35.678Z,12.50
2022-08-26T16:49:04.759Z,12.20
2022-08-26T16:51:32.854Z,9.90
2022-08-26T16:54:07.236Z,13.20
2022-08-26T16:56:36.475Z,11.90
2022-08-26T16:59:06.114Z,12.10
2022-08-26T17:01:33.797Z,18.60
2022-08-26T17:04:01.460Z,16.10
2022-08-26T17:06:29.686Z,17.50
2022-08-26T17:08:57.154Z,11.30
2022-08-26T17:11:24.651Z,14.20
2022-08-26T17:13:52.203Z,11.30
2022-08-26T17:16:23.321Z,13.60
2022-08-26T17:18:56.318Z,9.10
2022-08-26T17:21:25.048Z,12.00
2022-08-26T17:23:52.866Z,14.50
2022-08-26T17:26:21.080Z,11.60
2022-08-26T17:28:49.983Z,12.30
2022-08-26T17:31:18.687Z,17.00
2022-08-26T17:33:53.419Z,11.10
2022-08-26T17:36:27.838Z,11.30
2022-08-26T17:38:57.629Z,11.50
2022-08-26T17:41:26.186Z,12.30
2022-08-26T17:43:53.887Z,15.70
2022-08-26T17:46:22.136Z,13.10
2022-08-26T17:48:49.940Z,16.30
2022-08-26T17:51:19.435Z,12.40
2022-08-26T17:53:47.867Z,13.90
2022-08-26T17:56:17.796Z,19.10
2022-08-26T17:58:51.133Z,24.90
2022-08-26T18:01:26.069Z,28.40
2022-08-26T18:03:59.688Z,25.00
2022-08-26T18:06:30.593Z,18.70
2022-08-26T18:09:00.015Z,23.00
2022-08-26T18:11:28.417Z,18.60
2022-08-26T18:13:55.881Z,22.70
2022-08-26T18:16:23.556Z,37.50
2022-08-26T18:18:53.863Z,38.50
2022-08-26T18:21:24.468Z,32.80
2022-08-26T18:23:53.691Z,24.40
2022-08-26T18:26:26.565Z,22.70
2022-08-26T18:28:54.164Z,16.10
2022-08-26T18:31:22.687Z,15.30
2022-08-26T18:33:50.867Z,24.50
2022-08-26T18:36:23.129Z,25.00
2022-08-26T18:38:52.204Z,33.70
2022-08-26T18:41:22.056Z,28.40
2022-08-26T18:43:51.465Z,14.60
2022-08-26T18:46:22.077Z,12.20
2022-08-26T18:48:51.058Z,14.40
2022-08-26T18:51:22.125Z,22.00
2022-08-26T18:53:50.319Z,14.80
2022-08-26T18:56:18.876Z,19.90
2022-08-26T18:58:47.123Z,16.20
2022-08-26T19:01:16.615Z,17.00
2022-08-26T19:03:46.078Z,44.40
2022-08-26T19:06:17.050Z,27.60
2022-08-26T19:08:45.078Z,16.30
2022-08-26T19:11:32.466Z,18.90
2022-08-26T19:14:08.214Z,15.90
2022-08-26T19:16:37.473Z,18.50
2022-08-26T19:19:06.340Z,28.80
2022-08-26T19:21:36.430Z,31.00
2022-08-26T19:24:09.235Z,27.30
2022-08-26T19:26:38.752Z,17.60
2022-08-26T19:29:06.530Z,11.40
2022-08-26T19:31:34.108Z,11.30
2022-08-26T19:34:01.941Z,13.20
2022-08-26T19:36:29.421Z,12.90
2022-08-26T19:38:57.498Z,15.10
2022-08-26T19:41:37.012Z,14.90
2022-08-26T19:44:10.562Z,14.60
2022-08-26T19:49:06.787Z,12.70
2022-08-26T19:51:36.450Z,12.80
2022-08-26T19:54:04.250Z,18.80
2022-08-26T19:56:32.427Z,11.90
2022-08-26T19:58:59.892Z,14.40
2022-08-26T20:01:27.580Z,14.70
2022-08-26T20:06:23.898Z,17.60
2022-08-26T20:08:52.097Z,11.80
2022-08-26T20:11:24.216Z,14.70
2022-08-26T20:13:52.156Z,16.20
2022-08-26T20:16:19.784Z,14.30
2022-08-26T20:19:03.513Z,9.70
2022-08-26T20:21:35.741Z,12.00
2022-08-26T20:24:08.227Z,11.60
2022-08-26T20:26:38.077Z,10.90
2022-08-26T20:29:08.233Z,10.80
2022-08-26T20:31:36.135Z,10.50
2022-08-26T20:34:05.201Z,13.80
2022-08-26T20:36:34.248Z,13.90
2022-08-26T20:39:01.759Z,10.10
2022-08-26T20:41:29.604Z,11.20
2022-08-26T20:43:57.385Z,10.50
2022-08-26T20:46:26.303Z,8.90
2022-08-26T20:48:54.181Z,10.90
2022-08-26T20:51:26.247Z,9.80
2022-08-26T20:53:53.890Z,10.10
2022-08-26T20:56:24.203Z,11.50
2022-08-26T20:58:55.543Z,11.70
2022-08-26T21:01:26.542Z,12.50
2022-08-26T21:03:55.506Z,12.80
2022-08-26T21:06:23.756Z,9.00
2022-08-26T21:08:51.513Z,11.00
2022-08-26T21:11:21.323Z,9.70
2022-08-26T21:14:04.289Z,9.60
2022-08-26T21:16:36.140Z,12.30
2022-08-26T21:19:05.790Z,10.30
2022-08-26T21:21:34.620Z,11.00
2022-08-26T21:24:02.960Z,8.60
2022-08-26T21:26:30.576Z,14.50
2022-08-26T21:28:58.070Z,13.20
2022-08-26T21:44:53.664Z,12.70
2022-08-26T21:47:22.308Z,11.80
2022-08-26T21:49:51.067Z,9.10
2022-08-26T21:55:38.621Z,12.90
2022-08-26T21:58:06.160Z,11.80
2022-08-26T22:00:33.762Z,9.80
2022-08-26T22:03:01.328Z,12.00
2022-08-26T22:05:29.152Z,11.00
2022-08-26T22:07:56.639Z,10.80
2022-08-26T22:10:24.173Z,9.80
2022-08-26T22:12:51.710Z,12.20
2022-08-26T22:15:22.959Z,9.90
2022-08-26T22:17:50.456Z,11.90
2022-08-26T22:20:17.934Z,10.10
2022-08-26T22:22:45.541Z,12.80
2022-08-26T22:25:13.088Z,11.80
2022-08-26T22:27:42.851Z,13.00
2022-08-26T22:30:11.726Z,15.50
2022-08-26T22:32:40.356Z,11.00
2022-08-26T22:35:28.228Z,14.30
2022-08-26T22:37:55.532Z,10.90
2022-08-26T22:40:24.969Z,11.90
2022-08-26T22:42:58.114Z,12.90
2022-08-26T22:45:31.323Z,11.50
2022-08-26T22:48:04.469Z,11.30
2022-08-26T22:50:32.398Z,12.60
2022-08-26T22:52:59.847Z,10.10
2022-08-26T22:55:27.335Z,13.00
2022-08-26T22:57:54.908Z,12.30
2022-08-26T23:00:22.374Z,15.10
2022-08-26T23:03:02.008Z,12.50
2022-08-26T23:05:31.332Z,11.50
2022-08-26T23:07:59.846Z,13.20
2022-08-26T23:10:27.359Z,12.20
2022-08-26T23:12:55.252Z,14.00
2022-08-26T23:15:22.896Z,10.80
2022-08-26T23:17:53.580Z,12.70
2022-08-26T23:20:28.380Z,14.00
2022-08-26T23:22:56.348Z,10.40
2022-08-26T23:25:24.699Z,14.40
2022-08-26T23:27:52.630Z,13.00
2022-08-26T23:30:23.712Z,11.40
2022-08-26T23:32:51.842Z,11.40
2022-08-26T23:35:21.548Z,12.60
2022-08-26T23:37:52.040Z,14.40
2022-08-26T23:40:38.592Z,16.20
2022-08-26T23:43:08.661Z,11.50
2022-08-26T23:45:36.335Z,11.70
2022-08-26T23:48:06.564Z,13.30
2022-08-26T23:50:50.284Z,10.40
2022-08-26T23:53:21.974Z,11.60
2022-08-26T23:55:51.954Z,11.90
2022-08-26T23:58:20.777Z,13.90
